sensor_id;sensor_type;location;lat;lon;timestamp;P1;durP1;ratioP1;P2;durP2;ratioP2
77866;SDS011;67271;59.120;37.970;2024-03-29T00:00:39;4.65;;;2.05;;
77866;SDS011;67271;59.120;37.970;2024-03-29T00:03:05;5.38;;;2.83;;
77866;SDS011;67271;59.120;37.970;2024-03-29T00:05:35;3.53;;;2.00;;
77866;SDS011;67271;59.120;37.970;2024-03-29T00:08:01;5.05;;;2.53;;
77866;SDS011;67271;59.120;37.970;2024-03-29T00:10:27;4.45;;;2.42;;
77866;SDS011;67271;59.120;37.970;2024-03-29T00:12:53;3.28;;;2.00;;
77866;SDS011;67271;59.120;37.970;2024-03-29T00:15:19;3.28;;;2.20;;
77866;SDS011;67271;59.120;37.970;2024-03-29T00:17:45;14.85;;;2.53;;
77866;SDS011;67271;59.120;37.970;2024-03-29T00:20:11;4.78;;;2.28;;
77866;SDS011;67271;59.120;37.970;2024-03-29T00:22:37;5.93;;;2.53;;
77866;SDS011;67271;59.120;37.970;2024-03-29T00:25:03;4.75;;;2.05;;
77866;SDS011;67271;59.120;37.970;2024-03-29T00:27:29;5.13;;;2.53;;
77866;SDS011;67271;59.120;37.970;2024-03-29T00:29:56;14.13;;;3.15;;
77866;SDS011;67271;59.120;37.970;2024-03-29T00:32:22;4.57;;;2.42;;
77866;SDS011;67271;59.120;37.970;2024-03-29T00:34:51;4.15;;;1.90;;
77866;SDS011;67271;59.120;37.970;2024-03-29T00:37:18;2.50;;;2.28;;
77866;SDS011;67271;59.120;37.970;2024-03-29T00:39:44;3.72;;;2.47;;
77866;SDS011;67271;59.120;37.970;2024-03-29T00:42:10;4.97;;;2.75;;
77866;SDS011;67271;59.120;37.970;2024-03-29T00:44:41;6.90;;;2.95;;
77866;SDS011;67271;59.120;37.970;2024-03-29T00:47:07;8.68;;;2.92;;
77866;SDS011;67271;59.120;37.970;2024-03-29T00:49:34;3.95;;;2.33;;
77866;SDS011;67271;59.120;37.970;2024-03-29T00:52:00;6.70;;;2.80;;
77866;SDS011;67271;59.120;37.970;2024-03-29T00:54:27;4.72;;;2.63;;
77866;SDS011;67271;59.120;37.970;2024-03-29T00:56:52;4.75;;;3.10;;
77866;SDS011;67271;59.120;37.970;2024-03-29T00:59:18;4.32;;;2.50;;
77866;SDS011;67271;59.120;37.970;2024-03-29T01:01:45;4.88;;;2.38;;
77866;SDS011;67271;59.120;37.970;2024-03-29T01:04:12;6.22;;;3.72;;
77866;SDS011;67271;59.120;37.970;2024-03-29T01:06:38;6.40;;;3.50;;
77866;SDS011;67271;59.120;37.970;2024-03-29T01:09:08;9.07;;;2.90;;
77866;SDS011;67271;59.120;37.970;2024-03-29T01:11:37;5.45;;;3.15;;
77866;SDS011;67271;59.120;37.970;2024-03-29T01:14:04;9.68;;;2.83;;
77866;SDS011;67271;59.120;37.970;2024-03-29T01:16:30;5.47;;;2.80;;
77866;SDS011;67271;59.120;37.970;2024-03-29T01:18:57;7.00;;;4.00;;
77866;SDS011;67271;59.120;37.970;2024-03-29T01:21:23;6.00;;;3.58;;
77866;SDS011;67271;59.120;37.970;2024-03-29T01:23:50;7.90;;;3.42;;
77866;SDS011;67271;59.120;37.970;2024-03-29T01:26:15;4.35;;;2.55;;
77866;SDS011;67271;59.120;37.970;2024-03-29T01:28:42;6.72;;;3.72;;
77866;SDS011;67271;59.120;37.970;2024-03-29T01:31:09;4.25;;;3.08;;
77866;SDS011;67271;59.120;37.970;2024-03-29T01:33:35;8.02;;;3.50;;
77866;SDS011;67271;59.120;37.970;2024-03-29T01:36:03;6.15;;;3.50;;
77866;SDS011;67271;59.120;37.970;2024-03-29T01:38:30;10.90;;;5.22;;
77866;SDS011;67271;59.120;37.970;2024-03-29T01:40:56;5.30;;;2.95;;
77866;SDS011;67271;59.120;37.970;2024-03-29T01:43:22;8.50;;;4.30;;
77866;SDS011;67271;59.120;37.970;2024-03-29T01:45:49;8.75;;;3.80;;
77866;SDS011;67271;59.120;37.970;2024-03-29T01:48:18;7.60;;;4.40;;
77866;SDS011;67271;59.120;37.970;2024-03-29T01:50:45;8.73;;;3.58;;
77866;SDS011;67271;59.120;37.970;2024-03-29T01:53:14;9.52;;;4.05;;
77866;SDS011;67271;59.120;37.970;2024-03-29T01:55:42;4.45;;;2.80;;
77866;SDS011;67271;59.120;37.970;2024-03-29T01:58:10;6.43;;;3.78;;
77866;SDS011;67271;59.120;37.970;2024-03-29T02:00:47;12.27;;;3.60;;
77866;SDS011;67271;59.120;37.970;2024-03-29T02:03:16;12.50;;;4.20;;
77866;SDS011;67271;59.120;37.970;2024-03-29T02:05:46;8.60;;;4.45;;
77866;SDS011;67271;59.120;37.970;2024-03-29T02:08:14;6.95;;;3.53;;
77866;SDS011;67271;59.120;37.970;2024-03-29T02:10:40;7.90;;;4.80;;
77866;SDS011;67271;59.120;37.970;2024-03-29T02:13:08;9.05;;;3.70;;
77866;SDS011;67271;59.120;37.970;2024-03-29T02:15:34;12.32;;;4.43;;
77866;SDS011;67271;59.120;37.970;2024-03-29T02:18:00;16.05;;;4.25;;
77866;SDS011;67271;59.120;37.970;2024-03-29T02:20:26;9.05;;;4.40;;
77866;SDS011;67271;59.120;37.970;2024-03-29T02:22:57;11.95;;;4.07;;
77866;SDS011;67271;59.120;37.970;2024-03-29T02:25:28;6.82;;;3.85;;
77866;SDS011;67271;59.120;37.970;2024-03-29T02:27:54;11.82;;;5.55;;
77866;SDS011;67271;59.120;37.970;2024-03-29T02:30:20;8.38;;;4.20;;
77866;SDS011;67271;59.120;37.970;2024-03-29T02:32:46;7.35;;;3.67;;
77866;SDS011;67271;59.120;37.970;2024-03-29T02:35:13;9.27;;;4.38;;
77866;SDS011;67271;59.120;37.970;2024-03-29T02:37:39;9.60;;;4.38;;
77866;SDS011;67271;59.120;37.970;2024-03-29T02:40:05;9.02;;;4.43;;
77866;SDS011;67271;59.120;37.970;2024-03-29T02:42:34;8.25;;;2.55;;
77866;SDS011;67271;59.120;37.970;2024-03-29T02:45:01;9.52;;;5.07;;
77866;SDS011;67271;59.120;37.970;2024-03-29T02:47:31;9.43;;;5.07;;
77866;SDS011;67271;59.120;37.970;2024-03-29T02:49:56;8.95;;;4.40;;
77866;SDS011;67271;59.120;37.970;2024-03-29T02:52:22;6.97;;;4.28;;
77866;SDS011;67271;59.120;37.970;2024-03-29T02:54:48;17.33;;;5.80;;
77866;SDS011;67271;59.120;37.970;2024-03-29T02:57:14;8.65;;;3.72;;
77866;SDS011;67271;59.120;37.970;2024-03-29T02:59:40;9.73;;;4.93;;
77866;SDS011;67271;59.120;37.970;2024-03-29T03:02:06;7.28;;;3.78;;
77866;SDS011;67271;59.120;37.970;2024-03-29T03:04:32;13.07;;;5.18;;
77866;SDS011;67271;59.120;37.970;2024-03-29T03:06:58;8.55;;;4.20;;
77866;SDS011;67271;59.120;37.970;2024-03-29T03:09:44;5.88;;;3.33;;
77866;SDS011;67271;59.120;37.970;2024-03-29T03:12:29;13.48;;;5.53;;
77866;SDS011;67271;59.120;37.970;2024-03-29T03:14:56;5.30;;;3.58;;
77866;SDS011;67271;59.120;37.970;2024-03-29T03:17:23;12.20;;;5.95;;
77866;SDS011;67271;59.120;37.970;2024-03-29T03:19:50;9.65;;;4.80;;
77866;SDS011;67271;59.120;37.970;2024-03-29T03:22:17;14.90;;;5.30;;
77866;SDS011;67271;59.120;37.970;2024-03-29T03:24:43;17.83;;;5.97;;
77866;SDS011;67271;59.120;37.970;2024-03-29T03:27:09;10.00;;;5.18;;
77866;SDS011;67271;59.120;37.970;2024-03-29T03:29:35;11.00;;;5.45;;
77866;SDS011;67271;59.120;37.970;2024-03-29T03:32:00;13.13;;;5.45;;
77866;SDS011;67271;59.120;37.970;2024-03-29T03:34:26;9.55;;;4.55;;
77866;SDS011;67271;59.120;37.970;2024-03-29T03:36:53;13.77;;;5.47;;
77866;SDS011;67271;59.120;37.970;2024-03-29T03:39:19;10.48;;;5.57;;
77866;SDS011;67271;59.120;37.970;2024-03-29T03:41:44;22.40;;;6.32;;
77866;SDS011;67271;59.120;37.970;2024-03-29T03:44:10;9.90;;;5.88;;
77866;SDS011;67271;59.120;37.970;2024-03-29T03:46:36;14.80;;;7.03;;
77866;SDS011;67271;59.120;37.970;2024-03-29T03:49:02;13.25;;;5.70;;
77866;SDS011;67271;59.120;37.970;2024-03-29T03:51:27;9.15;;;5.28;;
77866;SDS011;67271;59.120;37.970;2024-03-29T03:53:53;11.10;;;6.15;;
77866;SDS011;67271;59.120;37.970;2024-03-29T03:56:19;12.02;;;5.88;;
77866;SDS011;67271;59.120;37.970;2024-03-29T03:58:45;7.60;;;4.28;;
77866;SDS011;67271;59.120;37.970;2024-03-29T04:01:11;10.48;;;5.55;;
77866;SDS011;67271;59.120;37.970;2024-03-29T04:03:37;16.08;;;7.25;;
77866;SDS011;67271;59.120;37.970;2024-03-29T04:06:05;12.00;;;6.47;;
77866;SDS011;67271;59.120;37.970;2024-03-29T04:08:32;16.30;;;7.15;;
77866;SDS011;67271;59.120;37.970;2024-03-29T04:11:01;13.50;;;5.80;;
77866;SDS011;67271;59.120;37.970;2024-03-29T04:13:30;17.83;;;5.68;;
77866;SDS011;67271;59.120;37.970;2024-03-29T04:16:02;19.75;;;7.78;;
77866;SDS011;67271;59.120;37.970;2024-03-29T04:18:29;26.10;;;5.68;;
77866;SDS011;67271;59.120;37.970;2024-03-29T04:20:58;14.30;;;6.65;;
77866;SDS011;67271;59.120;37.970;2024-03-29T04:23:25;9.80;;;5.32;;
77866;SDS011;67271;59.120;37.970;2024-03-29T04:25:55;14.40;;;6.28;;
77866;SDS011;67271;59.120;37.970;2024-03-29T04:28:21;3.83;;;2.30;;
77866;SDS011;67271;59.120;37.970;2024-03-29T04:30:51;12.15;;;5.70;;
77866;SDS011;67271;59.120;37.970;2024-03-29T04:33:20;9.07;;;4.80;;
77866;SDS011;67271;59.120;37.970;2024-03-29T04:36:03;19.20;;;6.35;;
77866;SDS011;67271;59.120;37.970;2024-03-29T04:38:30;22.02;;;6.15;;
77866;SDS011;67271;59.120;37.970;2024-03-29T04:40:57;7.88;;;4.60;;
77866;SDS011;67271;59.120;37.970;2024-03-29T04:43:25;13.45;;;5.85;;
77866;SDS011;67271;59.120;37.970;2024-03-29T04:46:04;10.93;;;5.85;;
77866;SDS011;67271;59.120;37.970;2024-03-29T04:48:35;13.60;;;6.05;;
77866;SDS011;67271;59.120;37.970;2024-03-29T04:51:05;12.57;;;6.53;;
77866;SDS011;67271;59.120;37.970;2024-03-29T04:53:31;17.75;;;7.00;;
77866;SDS011;67271;59.120;37.970;2024-03-29T04:55:57;18.33;;;6.18;;
77866;SDS011;67271;59.120;37.970;2024-03-29T04:58:24;8.40;;;5.32;;
77866;SDS011;67271;59.120;37.970;2024-03-29T05:00:51;14.32;;;6.47;;
77866;SDS011;67271;59.120;37.970;2024-03-29T05:03:17;13.65;;;5.93;;
77866;SDS011;67271;59.120;37.970;2024-03-29T05:05:44;14.30;;;6.45;;
77866;SDS011;67271;59.120;37.970;2024-03-29T05:08:10;15.27;;;6.82;;
77866;SDS011;67271;59.120;37.970;2024-03-29T05:10:36;15.88;;;7.20;;
77866;SDS011;67271;59.120;37.970;2024-03-29T05:13:03;15.02;;;5.80;;
77866;SDS011;67271;59.120;37.970;2024-03-29T05:15:29;14.27;;;5.18;;
77866;SDS011;67271;59.120;37.970;2024-03-29T05:17:54;14.85;;;5.82;;
77866;SDS011;67271;59.120;37.970;2024-03-29T05:20:20;9.25;;;5.65;;
77866;SDS011;67271;59.120;37.970;2024-03-29T05:22:46;17.67;;;6.47;;
77866;SDS011;67271;59.120;37.970;2024-03-29T05:25:12;15.68;;;6.18;;
77866;SDS011;67271;59.120;37.970;2024-03-29T05:27:38;9.23;;;4.28;;
77866;SDS011;67271;59.120;37.970;2024-03-29T05:30:04;10.95;;;6.05;;
77866;SDS011;67271;59.120;37.970;2024-03-29T05:32:30;13.77;;;5.82;;
77866;SDS011;67271;59.120;37.970;2024-03-29T05:34:56;8.13;;;4.57;;
77866;SDS011;67271;59.120;37.970;2024-03-29T05:37:22;16.80;;;6.55;;
77866;SDS011;67271;59.120;37.970;2024-03-29T05:39:51;12.27;;;5.45;;
77866;SDS011;67271;59.120;37.970;2024-03-29T05:44:52;11.05;;;6.00;;
77866;SDS011;67271;59.120;37.970;2024-03-29T05:47:18;10.65;;;5.78;;
77866;SDS011;67271;59.120;37.970;2024-03-29T05:49:45;13.55;;;6.82;;
77866;SDS011;67271;59.120;37.970;2024-03-29T05:52:11;15.07;;;6.88;;
77866;SDS011;67271;59.120;37.970;2024-03-29T05:54:39;13.57;;;6.30;;
77866;SDS011;67271;59.120;37.970;2024-03-29T05:57:06;12.02;;;5.82;;
77866;SDS011;67271;59.120;37.970;2024-03-29T05:59:32;13.00;;;6.40;;
77866;SDS011;67271;59.120;37.970;2024-03-29T06:01:58;11.63;;;5.93;;
77866;SDS011;67271;59.120;37.970;2024-03-29T06:04:24;12.70;;;5.55;;
77866;SDS011;67271;59.120;37.970;2024-03-29T06:07:00;17.13;;;7.00;;
77866;SDS011;67271;59.120;37.970;2024-03-29T06:09:27;15.93;;;6.40;;
77866;SDS011;67271;59.120;37.970;2024-03-29T06:11:54;13.27;;;6.22;;
77866;SDS011;67271;59.120;37.970;2024-03-29T06:14:21;11.30;;;5.40;;
77866;SDS011;67271;59.120;37.970;2024-03-29T06:17:08;9.32;;;5.35;;
77866;SDS011;67271;59.120;37.970;2024-03-29T06:19:50;14.77;;;6.82;;
77866;SDS011;67271;59.120;37.970;2024-03-29T06:22:22;17.52;;;6.78;;
77866;SDS011;67271;59.120;37.970;2024-03-29T06:24:49;14.00;;;6.35;;
77866;SDS011;67271;59.120;37.970;2024-03-29T06:27:17;14.50;;;5.47;;
77866;SDS011;67271;59.120;37.970;2024-03-29T06:29:44;8.93;;;4.32;;
77866;SDS011;67271;59.120;37.970;2024-03-29T06:32:10;14.63;;;5.95;;
77866;SDS011;67271;59.120;37.970;2024-03-29T06:34:36;15.48;;;6.30;;
77866;SDS011;67271;59.120;37.970;2024-03-29T06:37:02;11.45;;;5.60;;
77866;SDS011;67271;59.120;37.970;2024-03-29T06:39:28;13.65;;;6.38;;
77866;SDS011;67271;59.120;37.970;2024-03-29T06:41:54;10.48;;;5.22;;
77866;SDS011;67271;59.120;37.970;2024-03-29T06:44:20;10.32;;;5.22;;
77866;SDS011;67271;59.120;37.970;2024-03-29T06:46:46;9.85;;;5.30;;
77866;SDS011;67271;59.120;37.970;2024-03-29T06:49:12;10.13;;;5.40;;
77866;SDS011;67271;59.120;37.970;2024-03-29T06:51:41;34.72;;;7.00;;
77866;SDS011;67271;59.120;37.970;2024-03-29T06:54:06;12.10;;;5.80;;
77866;SDS011;67271;59.120;37.970;2024-03-29T06:56:32;18.40;;;6.80;;
77866;SDS011;67271;59.120;37.970;2024-03-29T06:58:58;10.48;;;4.78;;
77866;SDS011;67271;59.120;37.970;2024-03-29T07:01:24;15.13;;;6.45;;
77866;SDS011;67271;59.120;37.970;2024-03-29T07:03:50;10.98;;;5.82;;
77866;SDS011;67271;59.120;37.970;2024-03-29T07:06:16;14.30;;;6.07;;
77866;SDS011;67271;59.120;37.970;2024-03-29T07:08:42;11.82;;;5.80;;
77866;SDS011;67271;59.120;37.970;2024-03-29T07:11:08;7.88;;;4.53;;
77866;SDS011;67271;59.120;37.970;2024-03-29T07:13:35;13.65;;;5.57;;
77866;SDS011;67271;59.120;37.970;2024-03-29T07:16:01;15.77;;;6.28;;
77866;SDS011;67271;59.120;37.970;2024-03-29T07:18:27;10.55;;;5.47;;
77866;SDS011;67271;59.120;37.970;2024-03-29T07:20:54;13.73;;;5.13;;
77866;SDS011;67271;59.120;37.970;2024-03-29T07:23:20;14.45;;;6.47;;
77866;SDS011;67271;59.120;37.970;2024-03-29T07:25:56;13.75;;;6.30;;
77866;SDS011;67271;59.120;37.970;2024-03-29T07:28:26;13.43;;;5.35;;
77866;SDS011;67271;59.120;37.970;2024-03-29T07:30:52;12.52;;;5.95;;
77866;SDS011;67271;59.120;37.970;2024-03-29T07:33:19;12.90;;;5.63;;
77866;SDS011;67271;59.120;37.970;2024-03-29T07:35:47;16.10;;;7.15;;
77866;SDS011;67271;59.120;37.970;2024-03-29T07:38:13;12.43;;;5.35;;
77866;SDS011;67271;59.120;37.970;2024-03-29T07:40:42;17.38;;;5.68;;
77866;SDS011;67271;59.120;37.970;2024-03-29T07:43:09;14.23;;;5.40;;
77866;SDS011;67271;59.120;37.970;2024-03-29T07:45:35;11.63;;;6.40;;
77866;SDS011;67271;59.120;37.970;2024-03-29T07:48:01;15.80;;;6.32;;
77866;SDS011;67271;59.120;37.970;2024-03-29T07:50:26;19.17;;;5.43;;
77866;SDS011;67271;59.120;37.970;2024-03-29T07:52:52;15.20;;;5.85;;
77866;SDS011;67271;59.120;37.970;2024-03-29T07:55:18;12.90;;;5.93;;
77866;SDS011;67271;59.120;37.970;2024-03-29T07:57:44;11.48;;;5.35;;
77866;SDS011;67271;59.120;37.970;2024-03-29T08:00:12;12.80;;;6.78;;
77866;SDS011;67271;59.120;37.970;2024-03-29T08:02:38;17.48;;;6.43;;
77866;SDS011;67271;59.120;37.970;2024-03-29T08:05:05;9.93;;;5.15;;
77866;SDS011;67271;59.120;37.970;2024-03-29T08:07:32;11.07;;;4.75;;
77866;SDS011;67271;59.120;37.970;2024-03-29T08:09:58;16.40;;;6.68;;
77866;SDS011;67271;59.120;37.970;2024-03-29T08:12:24;24.60;;;7.03;;
77866;SDS011;67271;59.120;37.970;2024-03-29T08:14:49;14.85;;;6.22;;
77866;SDS011;67271;59.120;37.970;2024-03-29T08:17:15;12.05;;;5.57;;
77866;SDS011;67271;59.120;37.970;2024-03-29T08:19:41;13.00;;;6.40;;
77866;SDS011;67271;59.120;37.970;2024-03-29T08:22:08;13.07;;;6.78;;
77866;SDS011;67271;59.120;37.970;2024-03-29T08:24:36;15.00;;;6.50;;
77866;SDS011;67271;59.120;37.970;2024-03-29T08:27:03;18.52;;;7.40;;
77866;SDS011;67271;59.120;37.970;2024-03-29T08:29:29;16.10;;;5.95;;
77866;SDS011;67271;59.120;37.970;2024-03-29T08:31:54;22.05;;;6.50;;
77866;SDS011;67271;59.120;37.970;2024-03-29T08:34:20;15.55;;;7.22;;
77866;SDS011;67271;59.120;37.970;2024-03-29T08:36:47;13.02;;;5.28;;
77866;SDS011;67271;59.120;37.970;2024-03-29T08:39:13;18.55;;;6.40;;
77866;SDS011;67271;59.120;37.970;2024-03-29T08:41:39;13.85;;;6.57;;
77866;SDS011;67271;59.120;37.970;2024-03-29T08:44:05;26.70;;;6.97;;
77866;SDS011;67271;59.120;37.970;2024-03-29T08:46:32;17.40;;;8.07;;
77866;SDS011;67271;59.120;37.970;2024-03-29T08:48:58;18.02;;;7.07;;
77866;SDS011;67271;59.120;37.970;2024-03-29T08:51:24;15.20;;;6.35;;
77866;SDS011;67271;59.120;37.970;2024-03-29T08:53:50;12.00;;;6.25;;
77866;SDS011;67271;59.120;37.970;2024-03-29T08:56:16;23.83;;;6.60;;
77866;SDS011;67271;59.120;37.970;2024-03-29T08:58:42;11.05;;;4.88;;
77866;SDS011;67271;59.120;37.970;2024-03-29T09:01:08;9.15;;;5.13;;
77866;SDS011;67271;59.120;37.970;2024-03-29T09:03:34;11.35;;;5.63;;
77866;SDS011;67271;59.120;37.970;2024-03-29T09:05:59;16.92;;;6.97;;
77866;SDS011;67271;59.120;37.970;2024-03-29T09:08:25;18.67;;;7.07;;
77866;SDS011;67271;59.120;37.970;2024-03-29T09:10:51;13.50;;;6.53;;
77866;SDS011;67271;59.120;37.970;2024-03-29T09:13:17;12.85;;;6.53;;
77866;SDS011;67271;59.120;37.970;2024-03-29T09:15:43;17.38;;;7.10;;
77866;SDS011;67271;59.120;37.970;2024-03-29T09:18:09;12.30;;;6.40;;
77866;SDS011;67271;59.120;37.970;2024-03-29T09:20:42;14.60;;;7.40;;
77866;SDS011;67271;59.120;37.970;2024-03-29T09:23:09;14.60;;;6.53;;
77866;SDS011;67271;59.120;37.970;2024-03-29T09:25:40;17.77;;;6.43;;
77866;SDS011;67271;59.120;37.970;2024-03-29T09:28:06;18.00;;;7.60;;
77866;SDS011;67271;59.120;37.970;2024-03-29T09:30:32;19.73;;;7.10;;
77866;SDS011;67271;59.120;37.970;2024-03-29T09:32:58;25.55;;;7.07;;
77866;SDS011;67271;59.120;37.970;2024-03-29T09:35:23;11.35;;;5.82;;
77866;SDS011;67271;59.120;37.970;2024-03-29T09:37:50;15.32;;;7.65;;
77866;SDS011;67271;59.120;37.970;2024-03-29T09:40:16;23.63;;;6.90;;
77866;SDS011;67271;59.120;37.970;2024-03-29T09:42:43;15.18;;;6.72;;
77866;SDS011;67271;59.120;37.970;2024-03-29T09:45:09;20.17;;;6.60;;
77866;SDS011;67271;59.120;37.970;2024-03-29T09:47:36;12.93;;;6.32;;
77866;SDS011;67271;59.120;37.970;2024-03-29T09:50:05;14.52;;;6.53;;
77866;SDS011;67271;59.120;37.970;2024-03-29T09:52:32;13.90;;;5.60;;
77866;SDS011;67271;59.120;37.970;2024-03-29T09:54:59;14.02;;;6.47;;
77866;SDS011;67271;59.120;37.970;2024-03-29T09:57:27;12.75;;;6.47;;
77866;SDS011;67271;59.120;37.970;2024-03-29T09:59:57;15.55;;;7.60;;
77866;SDS011;67271;59.120;37.970;2024-03-29T10:02:25;11.35;;;6.75;;
77866;SDS011;67271;59.120;37.970;2024-03-29T10:04:53;15.25;;;5.78;;
77866;SDS011;67271;59.120;37.970;2024-03-29T10:07:21;16.65;;;6.70;;
77866;SDS011;67271;59.120;37.970;2024-03-29T10:09:48;12.18;;;5.88;;
77866;SDS011;67271;59.120;37.970;2024-03-29T10:12:16;12.88;;;5.63;;
77866;SDS011;67271;59.120;37.970;2024-03-29T10:14:49;15.60;;;5.72;;
77866;SDS011;67271;59.120;37.970;2024-03-29T10:17:17;14.00;;;6.20;;
77866;SDS011;67271;59.120;37.970;2024-03-29T10:19:44;14.02;;;6.03;;
77866;SDS011;67271;59.120;37.970;2024-03-29T10:22:11;15.13;;;3.80;;
77866;SDS011;67271;59.120;37.970;2024-03-29T10:24:38;10.75;;;5.30;;
77866;SDS011;67271;59.120;37.970;2024-03-29T10:27:04;18.42;;;7.07;;
77866;SDS011;67271;59.120;37.970;2024-03-29T10:29:30;13.65;;;5.70;;
77866;SDS011;67271;59.120;37.970;2024-03-29T10:31:56;15.35;;;6.15;;
77866;SDS011;67271;59.120;37.970;2024-03-29T10:34:24;7.25;;;5.30;;
77866;SDS011;67271;59.120;37.970;2024-03-29T10:36:50;10.43;;;5.03;;
77866;SDS011;67271;59.120;37.970;2024-03-29T10:39:16;19.55;;;7.05;;
77866;SDS011;67271;59.120;37.970;2024-03-29T10:41:43;9.98;;;5.03;;
77866;SDS011;67271;59.120;37.970;2024-03-29T10:44:12;12.27;;;6.15;;
77866;SDS011;67271;59.120;37.970;2024-03-29T10:46:40;12.23;;;5.57;;
77866;SDS011;67271;59.120;37.970;2024-03-29T10:49:09;11.13;;;5.60;;
77866;SDS011;67271;59.120;37.970;2024-03-29T10:51:40;12.30;;;5.75;;
77866;SDS011;67271;59.120;37.970;2024-03-29T10:54:10;7.03;;;4.85;;
77866;SDS011;67271;59.120;37.970;2024-03-29T10:56:37;16.33;;;5.53;;
77866;SDS011;67271;59.120;37.970;2024-03-29T11:01:48;13.20;;;6.38;;
77866;SDS011;67271;59.120;37.970;2024-03-29T11:04:19;14.50;;;6.28;;
77866;SDS011;67271;59.120;37.970;2024-03-29T11:06:51;15.25;;;6.63;;
77866;SDS011;67271;59.120;37.970;2024-03-29T11:09:22;10.68;;;6.05;;
77866;SDS011;67271;59.120;37.970;2024-03-29T11:11:54;11.90;;;5.90;;
77866;SDS011;67271;59.120;37.970;2024-03-29T11:14:26;16.27;;;5.90;;
77866;SDS011;67271;59.120;37.970;2024-03-29T11:16:57;8.68;;;6.32;;
77866;SDS011;67271;59.120;37.970;2024-03-29T11:19:24;18.42;;;6.10;;
77866;SDS011;67271;59.120;37.970;2024-03-29T11:21:51;15.30;;;7.00;;
77866;SDS011;67271;59.120;37.970;2024-03-29T11:24:18;18.83;;;5.70;;
77866;SDS011;67271;59.120;37.970;2024-03-29T11:26:46;12.02;;;5.60;;
77866;SDS011;67271;59.120;37.970;2024-03-29T11:29:21;13.23;;;6.25;;
77866;SDS011;67271;59.120;37.970;2024-03-29T11:31:58;14.45;;;5.53;;
77866;SDS011;67271;59.120;37.970;2024-03-29T11:34:24;11.35;;;5.18;;
77866;SDS011;67271;59.120;37.970;2024-03-29T11:36:50;11.38;;;5.38;;
77866;SDS011;67271;59.120;37.970;2024-03-29T11:39:20;13.43;;;5.90;;
77866;SDS011;67271;59.120;37.970;2024-03-29T11:41:47;10.38;;;5.40;;
77866;SDS011;67271;59.120;37.970;2024-03-29T11:44:14;17.63;;;6.38;;
77866;SDS011;67271;59.120;37.970;2024-03-29T11:46:40;9.95;;;5.60;;
77866;SDS011;67271;59.120;37.970;2024-03-29T11:49:06;12.20;;;5.80;;
77866;SDS011;67271;59.120;37.970;2024-03-29T11:51:32;14.80;;;4.30;;
77866;SDS011;67271;59.120;37.970;2024-03-29T11:53:59;12.88;;;6.55;;
77866;SDS011;67271;59.120;37.970;2024-03-29T11:56:26;30.25;;;7.15;;
77866;SDS011;67271;59.120;37.970;2024-03-29T11:58:51;16.40;;;5.40;;
77866;SDS011;67271;59.120;37.970;2024-03-29T12:01:19;12.98;;;5.80;;
77866;SDS011;67271;59.120;37.970;2024-03-29T12:03:45;13.38;;;5.57;;
77866;SDS011;67271;59.120;37.970;2024-03-29T12:06:11;11.65;;;5.80;;
77866;SDS011;67271;59.120;37.970;2024-03-29T12:08:39;13.05;;;5.30;;
77866;SDS011;67271;59.120;37.970;2024-03-29T12:11:07;9.30;;;5.20;;
77866;SDS011;67271;59.120;37.970;2024-03-29T12:13:33;11.00;;;5.63;;
77866;SDS011;67271;59.120;37.970;2024-03-29T12:15:59;9.93;;;5.00;;
77866;SDS011;67271;59.120;37.970;2024-03-29T12:18:26;9.32;;;5.22;;
77866;SDS011;67271;59.120;37.970;2024-03-29T12:20:59;11.27;;;5.03;;
77866;SDS011;67271;59.120;37.970;2024-03-29T12:23:25;13.25;;;5.72;;
77866;SDS011;67271;59.120;37.970;2024-03-29T12:25:52;11.48;;;6.43;;
77866;SDS011;67271;59.120;37.970;2024-03-29T12:28:22;13.27;;;5.78;;
77866;SDS011;67271;59.120;37.970;2024-03-29T12:30:49;13.07;;;6.38;;
77866;SDS011;67271;59.120;37.970;2024-03-29T12:33:15;10.23;;;5.15;;
77866;SDS011;67271;59.120;37.970;2024-03-29T12:35:45;10.93;;;5.57;;
77866;SDS011;67271;59.120;37.970;2024-03-29T12:38:18;13.77;;;5.68;;
77866;SDS011;67271;59.120;37.970;2024-03-29T12:40:46;7.53;;;4.15;;
77866;SDS011;67271;59.120;37.970;2024-03-29T12:43:13;10.75;;;5.72;;
77866;SDS011;67271;59.120;37.970;2024-03-29T12:48:12;12.35;;;6.00;;
77866;SDS011;67271;59.120;37.970;2024-03-29T12:50:43;9.75;;;5.43;;
77866;SDS011;67271;59.120;37.970;2024-03-29T12:53:10;15.88;;;4.45;;
77866;SDS011;67271;59.120;37.970;2024-03-29T12:55:41;13.10;;;5.82;;
77866;SDS011;67271;59.120;37.970;2024-03-29T12:58:11;19.23;;;6.25;;
77866;SDS011;67271;59.120;37.970;2024-03-29T13:00:38;13.65;;;6.05;;
77866;SDS011;67271;59.120;37.970;2024-03-29T13:03:05;8.73;;;5.18;;
77866;SDS011;67271;59.120;37.970;2024-03-29T13:05:31;15.48;;;5.97;;
77866;SDS011;67271;59.120;37.970;2024-03-29T13:08:05;15.00;;;4.93;;
77866;SDS011;67271;59.120;37.970;2024-03-29T13:10:32;10.13;;;5.32;;
77866;SDS011;67271;59.120;37.970;2024-03-29T13:12:58;13.75;;;5.03;;
77866;SDS011;67271;59.120;37.970;2024-03-29T13:15:24;11.18;;;5.65;;
77866;SDS011;67271;59.120;37.970;2024-03-29T13:17:52;13.63;;;4.93;;
77866;SDS011;67271;59.120;37.970;2024-03-29T13:20:20;7.68;;;4.25;;
77866;SDS011;67271;59.120;37.970;2024-03-29T13:22:47;8.15;;;4.57;;
77866;SDS011;67271;59.120;37.970;2024-03-29T13:25:18;10.43;;;5.13;;
77866;SDS011;67271;59.120;37.970;2024-03-29T13:27:46;11.50;;;5.18;;
77866;SDS011;67271;59.120;37.970;2024-03-29T13:30:14;14.40;;;5.10;;
77866;SDS011;67271;59.120;37.970;2024-03-29T13:32:41;9.77;;;4.80;;
77866;SDS011;67271;59.120;37.970;2024-03-29T13:37:40;11.35;;;4.18;;
77866;SDS011;67271;59.120;37.970;2024-03-29T13:40:18;11.20;;;4.90;;
77866;SDS011;67271;59.120;37.970;2024-03-29T13:42:46;34.22;;;5.90;;
77866;SDS011;67271;59.120;37.970;2024-03-29T13:45:14;10.93;;;4.63;;
77866;SDS011;67271;59.120;37.970;2024-03-29T13:47:41;10.55;;;4.80;;
77866;SDS011;67271;59.120;37.970;2024-03-29T13:50:08;4.93;;;3.28;;
77866;SDS011;67271;59.120;37.970;2024-03-29T13:52:36;16.75;;;5.25;;
77866;SDS011;67271;59.120;37.970;2024-03-29T13:55:02;22.90;;;5.32;;
77866;SDS011;67271;59.120;37.970;2024-03-29T13:57:29;10.77;;;5.25;;
77866;SDS011;67271;59.120;37.970;2024-03-29T13:59:56;17.98;;;5.38;;
77866;SDS011;67271;59.120;37.970;2024-03-29T14:02:24;26.25;;;6.45;;
77866;SDS011;67271;59.120;37.970;2024-03-29T14:04:51;7.65;;;3.88;;
77866;SDS011;67271;59.120;37.970;2024-03-29T14:07:17;7.70;;;5.20;;
77866;SDS011;67271;59.120;37.970;2024-03-29T14:09:44;9.35;;;4.95;;
77866;SDS011;67271;59.120;37.970;2024-03-29T14:12:11;8.75;;;4.28;;
77866;SDS011;67271;59.120;37.970;2024-03-29T14:14:37;10.95;;;4.88;;
77866;SDS011;67271;59.120;37.970;2024-03-29T14:17:03;13.48;;;4.53;;
77866;SDS011;67271;59.120;37.970;2024-03-29T14:19:30;17.13;;;5.20;;
77866;SDS011;67271;59.120;37.970;2024-03-29T14:21:57;8.32;;;3.83;;
77866;SDS011;67271;59.120;37.970;2024-03-29T14:24:23;7.53;;;4.65;;
77866;SDS011;67271;59.120;37.970;2024-03-29T14:26:50;6.72;;;4.57;;
77866;SDS011;67271;59.120;37.970;2024-03-29T14:29:17;15.00;;;5.30;;
77866;SDS011;67271;59.120;37.970;2024-03-29T14:31:47;4.93;;;3.15;;
77866;SDS011;67271;59.120;37.970;2024-03-29T14:34:13;10.05;;;4.72;;
77866;SDS011;67271;59.120;37.970;2024-03-29T14:36:39;11.25;;;4.45;;